Terminal Aerodrome Forecast
Issued by NWS Albany, NY

Home | Current Version | Previous Version | Text Only | Print | Product List | Glossary On
Versions: 1 2 3 4 5 6 7 8 9 10 11 12 13 14 15 16 17 18 19 20
000
FTUS41 KALY 251129
TAFGFL
TAF
KGFL 251129Z 2512/2612 00000KT 2SM BR SCT002
      TEMPO 2512/2514 1/2SM FG VV002
     FM251400 VRB03KT P6SM FEW250
     FM251700 12005KT P6SM FEW045 SCT250
     FM252300 00000KT P6SM FEW250
     FM260300 00000KT 3SM BR SKC
     FM260600 00000KT 1/2SM FG VV002=

USA.gov is the U.S. government's official web portal to all federal, state and local government web resources and services.